sensor_id;sensor_type;location;lat;lon;timestamp;P1;durP1;ratioP1;P2;durP2;ratioP2
46439;SDS011;32138;50.966;6.968;2023-08-12T00:00:17;19.00;;;16.38;;
46439;SDS011;32138;50.966;6.968;2023-08-12T00:01:48;22.05;;;17.17;;
46439;SDS011;32138;50.966;6.968;2023-08-12T00:03:19;22.80;;;18.83;;
46439;SDS011;32138;50.966;6.968;2023-08-12T00:04:49;24.60;;;21.10;;
46439;SDS011;32138;50.966;6.968;2023-08-12T00:06:20;24.10;;;17.40;;
46439;SDS011;32138;50.966;6.968;2023-08-12T00:07:51;23.40;;;17.55;;
46439;SDS011;32138;50.966;6.968;2023-08-12T00:09:22;34.08;;;24.45;;
46439;SDS011;32138;50.966;6.968;2023-08-12T00:10:52;25.23;;;20.73;;
46439;SDS011;32138;50.966;6.968;2023-08-12T00:12:23;24.95;;;19.30;;
46439;SDS011;32138;50.966;6.968;2023-08-12T00:13:54;29.55;;;21.60;;
46439;SDS011;32138;50.966;6.968;2023-08-12T00:15:24;30.23;;;24.77;;
46439;SDS011;32138;50.966;6.968;2023-08-12T00:16:55;29.17;;;22.88;;
46439;SDS011;32138;50.966;6.968;2023-08-12T00:18:26;26.58;;;21.85;;
46439;SDS011;32138;50.966;6.968;2023-08-12T00:19:57;25.38;;;22.55;;
46439;SDS011;32138;50.966;6.968;2023-08-12T00:21:29;24.33;;;19.45;;
46439;SDS011;32138;50.966;6.968;2023-08-12T00:22:59;29.35;;;23.55;;
46439;SDS011;32138;50.966;6.968;2023-08-12T00:24:30;23.23;;;20.85;;
46439;SDS011;32138;50.966;6.968;2023-08-12T00:26:01;23.85;;;20.58;;
46439;SDS011;32138;50.966;6.968;2023-08-12T00:27:32;25.20;;;20.70;;
46439;SDS011;32138;50.966;6.968;2023-08-12T00:29:02;27.15;;;20.77;;
46439;SDS011;32138;50.966;6.968;2023-08-12T00:30:34;19.48;;;17.45;;
46439;SDS011;32138;50.966;6.968;2023-08-12T00:32:05;21.55;;;19.25;;
46439;SDS011;32138;50.966;6.968;2023-08-12T00:33:36;25.60;;;19.55;;
46439;SDS011;32138;50.966;6.968;2023-08-12T00:35:06;25.65;;;22.95;;
46439;SDS011;32138;50.966;6.968;2023-08-12T00:36:37;22.08;;;18.88;;
46439;SDS011;32138;50.966;6.968;2023-08-12T00:38:08;21.55;;;19.20;;
46439;SDS011;32138;50.966;6.968;2023-08-12T00:39:39;23.35;;;19.88;;
46439;SDS011;32138;50.966;6.968;2023-08-12T00:41:10;26.55;;;21.95;;
46439;SDS011;32138;50.966;6.968;2023-08-12T00:42:40;24.67;;;20.73;;
46439;SDS011;32138;50.966;6.968;2023-08-12T00:44:11;23.00;;;19.23;;
46439;SDS011;32138;50.966;6.968;2023-08-12T00:45:42;21.15;;;18.67;;
46439;SDS011;32138;50.966;6.968;2023-08-12T00:47:14;21.77;;;18.70;;
46439;SDS011;32138;50.966;6.968;2023-08-12T00:48:46;22.60;;;20.25;;
46439;SDS011;32138;50.966;6.968;2023-08-12T00:50:18;20.40;;;18.23;;
46439;SDS011;32138;50.966;6.968;2023-08-12T00:51:49;23.40;;;18.63;;
46439;SDS011;32138;50.966;6.968;2023-08-12T00:53:22;23.13;;;18.02;;
46439;SDS011;32138;50.966;6.968;2023-08-12T00:54:53;20.42;;;17.67;;
46439;SDS011;32138;50.966;6.968;2023-08-12T00:56:26;22.50;;;17.38;;
46439;SDS011;32138;50.966;6.968;2023-08-12T00:57:57;18.90;;;16.90;;
46439;SDS011;32138;50.966;6.968;2023-08-12T00:59:28;24.25;;;19.85;;
46439;SDS011;32138;50.966;6.968;2023-08-12T01:00:59;22.13;;;19.15;;
46439;SDS011;32138;50.966;6.968;2023-08-12T01:02:30;23.27;;;20.20;;
46439;SDS011;32138;50.966;6.968;2023-08-12T01:04:01;23.77;;;21.25;;
46439;SDS011;32138;50.966;6.968;2023-08-12T01:05:32;24.02;;;21.42;;
46439;SDS011;32138;50.966;6.968;2023-08-12T01:07:03;25.27;;;21.10;;
46439;SDS011;32138;50.966;6.968;2023-08-12T01:08:34;25.63;;;22.42;;
46439;SDS011;32138;50.966;6.968;2023-08-12T01:10:05;24.33;;;21.75;;
46439;SDS011;32138;50.966;6.968;2023-08-12T01:14:13;30.55;;;23.58;;
46439;SDS011;32138;50.966;6.968;2023-08-12T01:15:53;28.17;;;23.67;;
46439;SDS011;32138;50.966;6.968;2023-08-12T01:17:26;26.30;;;23.55;;
46439;SDS011;32138;50.966;6.968;2023-08-12T01:19:00;25.90;;;23.10;;
46439;SDS011;32138;50.966;6.968;2023-08-12T01:20:32;26.65;;;21.98;;
46439;SDS011;32138;50.966;6.968;2023-08-12T01:22:03;26.30;;;23.20;;
46439;SDS011;32138;50.966;6.968;2023-08-12T01:23:38;35.53;;;27.00;;
46439;SDS011;32138;50.966;6.968;2023-08-12T01:25:09;28.42;;;23.67;;
46439;SDS011;32138;50.966;6.968;2023-08-12T01:26:40;30.23;;;25.83;;
46439;SDS011;32138;50.966;6.968;2023-08-12T01:28:10;28.17;;;25.35;;
46439;SDS011;32138;50.966;6.968;2023-08-12T01:29:42;26.17;;;22.15;;
46439;SDS011;32138;50.966;6.968;2023-08-12T01:31:23;30.25;;;25.80;;
46439;SDS011;32138;50.966;6.968;2023-08-12T01:33:21;32.45;;;24.63;;
46439;SDS011;32138;50.966;6.968;2023-08-12T01:36:49;30.80;;;25.83;;
46439;SDS011;32138;50.966;6.968;2023-08-12T01:38:25;35.08;;;27.60;;
46439;SDS011;32138;50.966;6.968;2023-08-12T01:39:59;29.58;;;24.77;;
46439;SDS011;32138;50.966;6.968;2023-08-12T01:41:35;33.47;;;27.25;;
46439;SDS011;32138;50.966;6.968;2023-08-12T01:43:06;31.80;;;27.13;;
46439;SDS011;32138;50.966;6.968;2023-08-12T01:44:38;30.02;;;25.73;;
46439;SDS011;32138;50.966;6.968;2023-08-12T01:46:09;26.90;;;23.20;;
46439;SDS011;32138;50.966;6.968;2023-08-12T01:47:43;30.75;;;26.08;;
46439;SDS011;32138;50.966;6.968;2023-08-12T01:49:14;30.77;;;26.98;;
46439;SDS011;32138;50.966;6.968;2023-08-12T01:50:45;31.55;;;25.58;;
46439;SDS011;32138;50.966;6.968;2023-08-12T01:52:17;32.20;;;24.67;;
46439;SDS011;32138;50.966;6.968;2023-08-12T01:53:48;28.30;;;23.70;;
46439;SDS011;32138;50.966;6.968;2023-08-12T01:55:19;29.52;;;24.48;;
46439;SDS011;32138;50.966;6.968;2023-08-12T01:56:50;25.40;;;22.60;;
46439;SDS011;32138;50.966;6.968;2023-08-12T01:58:20;32.47;;;26.45;;
46439;SDS011;32138;50.966;6.968;2023-08-12T01:59:51;25.90;;;21.95;;
46439;SDS011;32138;50.966;6.968;2023-08-12T02:01:22;26.92;;;23.92;;
46439;SDS011;32138;50.966;6.968;2023-08-12T02:02:53;28.13;;;24.23;;
46439;SDS011;32138;50.966;6.968;2023-08-12T02:04:24;27.85;;;23.65;;
46439;SDS011;32138;50.966;6.968;2023-08-12T02:05:56;32.15;;;26.40;;
46439;SDS011;32138;50.966;6.968;2023-08-12T02:07:27;30.42;;;25.05;;
46439;SDS011;32138;50.966;6.968;2023-08-12T02:08:58;28.88;;;24.98;;
46439;SDS011;32138;50.966;6.968;2023-08-12T02:10:28;33.03;;;25.20;;
46439;SDS011;32138;50.966;6.968;2023-08-12T02:11:59;25.35;;;22.52;;
46439;SDS011;32138;50.966;6.968;2023-08-12T02:13:30;30.42;;;22.15;;
46439;SDS011;32138;50.966;6.968;2023-08-12T02:15:01;26.30;;;20.45;;
46439;SDS011;32138;50.966;6.968;2023-08-12T02:16:32;20.55;;;18.35;;
46439;SDS011;32138;50.966;6.968;2023-08-12T02:18:03;24.98;;;18.85;;
46439;SDS011;32138;50.966;6.968;2023-08-12T02:19:34;21.27;;;18.60;;
46439;SDS011;32138;50.966;6.968;2023-08-12T02:21:05;21.25;;;18.42;;
46439;SDS011;32138;50.966;6.968;2023-08-12T02:22:35;27.70;;;20.65;;
46439;SDS011;32138;50.966;6.968;2023-08-12T02:24:06;28.33;;;20.23;;
46439;SDS011;32138;50.966;6.968;2023-08-12T02:25:38;23.63;;;19.33;;
46439;SDS011;32138;50.966;6.968;2023-08-12T02:27:08;27.50;;;20.35;;
46439;SDS011;32138;50.966;6.968;2023-08-12T02:28:39;23.55;;;20.05;;
46439;SDS011;32138;50.966;6.968;2023-08-12T02:30:10;23.33;;;18.75;;
46439;SDS011;32138;50.966;6.968;2023-08-12T02:31:41;27.55;;;21.20;;
46439;SDS011;32138;50.966;6.968;2023-08-12T02:33:12;20.30;;;17.77;;
46439;SDS011;32138;50.966;6.968;2023-08-12T02:34:43;22.05;;;18.35;;
46439;SDS011;32138;50.966;6.968;2023-08-12T02:36:14;19.33;;;17.10;;
46439;SDS011;32138;50.966;6.968;2023-08-12T02:37:45;22.00;;;18.45;;
46439;SDS011;32138;50.966;6.968;2023-08-12T02:39:15;21.55;;;16.27;;
46439;SDS011;32138;50.966;6.968;2023-08-12T02:40:49;18.80;;;15.13;;
46439;SDS011;32138;50.966;6.968;2023-08-12T02:42:20;23.05;;;15.00;;
46439;SDS011;32138;50.966;6.968;2023-08-12T02:43:51;17.33;;;15.07;;
46439;SDS011;32138;50.966;6.968;2023-08-12T02:45:22;18.67;;;14.38;;
46439;SDS011;32138;50.966;6.968;2023-08-12T02:46:52;17.58;;;13.85;;
46439;SDS011;32138;50.966;6.968;2023-08-12T02:48:23;15.75;;;14.00;;
46439;SDS011;32138;50.966;6.968;2023-08-12T02:49:54;17.70;;;14.90;;
46439;SDS011;32138;50.966;6.968;2023-08-12T02:51:24;17.08;;;13.60;;
46439;SDS011;32138;50.966;6.968;2023-08-12T02:52:55;20.15;;;15.45;;
46439;SDS011;32138;50.966;6.968;2023-08-12T02:54:26;22.33;;;15.45;;
46439;SDS011;32138;50.966;6.968;2023-08-12T02:55:57;18.52;;;14.48;;
46439;SDS011;32138;50.966;6.968;2023-08-12T02:57:27;21.00;;;18.73;;
46439;SDS011;32138;50.966;6.968;2023-08-12T02:58:59;19.95;;;15.07;;
46439;SDS011;32138;50.966;6.968;2023-08-12T03:00:29;20.75;;;17.27;;
46439;SDS011;32138;50.966;6.968;2023-08-12T03:02:00;22.88;;;17.33;;
46439;SDS011;32138;50.966;6.968;2023-08-12T03:03:31;23.58;;;16.05;;
46439;SDS011;32138;50.966;6.968;2023-08-12T03:05:02;17.25;;;13.90;;
46439;SDS011;32138;50.966;6.968;2023-08-12T03:06:33;19.42;;;13.27;;
46439;SDS011;32138;50.966;6.968;2023-08-12T03:08:04;15.23;;;12.02;;
46439;SDS011;32138;50.966;6.968;2023-08-12T03:09:35;18.58;;;13.10;;
46439;SDS011;32138;50.966;6.968;2023-08-12T03:11:06;16.85;;;14.75;;
46439;SDS011;32138;50.966;6.968;2023-08-12T03:12:36;23.80;;;15.07;;
46439;SDS011;32138;50.966;6.968;2023-08-12T03:14:07;23.83;;;17.20;;
46439;SDS011;32138;50.966;6.968;2023-08-12T03:15:39;15.25;;;12.77;;
46439;SDS011;32138;50.966;6.968;2023-08-12T03:17:10;18.52;;;13.20;;
46439;SDS011;32138;50.966;6.968;2023-08-12T03:18:41;15.13;;;12.18;;
46439;SDS011;32138;50.966;6.968;2023-08-12T03:20:12;15.65;;;12.95;;
46439;SDS011;32138;50.966;6.968;2023-08-12T03:21:42;16.40;;;12.88;;
46439;SDS011;32138;50.966;6.968;2023-08-12T03:23:13;17.42;;;12.75;;
46439;SDS011;32138;50.966;6.968;2023-08-12T03:24:45;16.33;;;13.55;;
46439;SDS011;32138;50.966;6.968;2023-08-12T03:26:15;14.18;;;12.75;;
46439;SDS011;32138;50.966;6.968;2023-08-12T03:27:46;17.20;;;12.40;;
46439;SDS011;32138;50.966;6.968;2023-08-12T03:29:17;17.42;;;12.70;;
46439;SDS011;32138;50.966;6.968;2023-08-12T03:30:51;19.88;;;14.38;;
46439;SDS011;32138;50.966;6.968;2023-08-12T03:32:22;15.98;;;14.32;;
46439;SDS011;32138;50.966;6.968;2023-08-12T03:33:55;16.88;;;13.45;;
46439;SDS011;32138;50.966;6.968;2023-08-12T03:35:26;16.65;;;13.93;;
46439;SDS011;32138;50.966;6.968;2023-08-12T03:36:56;16.52;;;12.60;;
46439;SDS011;32138;50.966;6.968;2023-08-12T03:38:27;19.88;;;13.77;;
46439;SDS011;32138;50.966;6.968;2023-08-12T03:39:58;20.27;;;15.02;;
46439;SDS011;32138;50.966;6.968;2023-08-12T03:41:28;16.20;;;14.13;;
46439;SDS011;32138;50.966;6.968;2023-08-12T03:43:00;18.45;;;14.43;;
46439;SDS011;32138;50.966;6.968;2023-08-12T03:44:31;18.48;;;14.32;;
46439;SDS011;32138;50.966;6.968;2023-08-12T03:46:02;20.73;;;15.77;;
46439;SDS011;32138;50.966;6.968;2023-08-12T03:47:32;18.10;;;13.90;;
46439;SDS011;32138;50.966;6.968;2023-08-12T03:49:03;22.60;;;14.55;;
46439;SDS011;32138;50.966;6.968;2023-08-12T03:50:34;18.92;;;14.93;;
46439;SDS011;32138;50.966;6.968;2023-08-12T03:52:07;20.17;;;14.90;;
46439;SDS011;32138;50.966;6.968;2023-08-12T03:53:38;21.90;;;15.80;;
46439;SDS011;32138;50.966;6.968;2023-08-12T03:55:09;17.85;;;14.98;;
46439;SDS011;32138;50.966;6.968;2023-08-12T03:56:39;16.80;;;15.10;;
46439;SDS011;32138;50.966;6.968;2023-08-12T03:58:10;17.67;;;15.63;;
46439;SDS011;32138;50.966;6.968;2023-08-12T03:59:41;17.02;;;15.20;;
46439;SDS011;32138;50.966;6.968;2023-08-12T04:01:12;16.80;;;14.73;;
46439;SDS011;32138;50.966;6.968;2023-08-12T04:02:42;16.13;;;14.23;;
46439;SDS011;32138;50.966;6.968;2023-08-12T04:04:13;18.80;;;16.88;;
46439;SDS011;32138;50.966;6.968;2023-08-12T04:05:47;21.40;;;18.00;;
46439;SDS011;32138;50.966;6.968;2023-08-12T04:07:22;20.10;;;16.85;;
46439;SDS011;32138;50.966;6.968;2023-08-12T04:08:52;19.45;;;16.92;;
46439;SDS011;32138;50.966;6.968;2023-08-12T04:10:23;21.13;;;17.02;;
46439;SDS011;32138;50.966;6.968;2023-08-12T04:11:54;19.98;;;16.98;;
46439;SDS011;32138;50.966;6.968;2023-08-12T04:13:25;21.23;;;16.60;;
46439;SDS011;32138;50.966;6.968;2023-08-12T04:14:56;19.23;;;17.25;;
46439;SDS011;32138;50.966;6.968;2023-08-12T04:16:27;22.73;;;17.17;;
46439;SDS011;32138;50.966;6.968;2023-08-12T04:17:58;20.02;;;16.20;;
46439;SDS011;32138;50.966;6.968;2023-08-12T04:19:28;18.58;;;16.65;;
46439;SDS011;32138;50.966;6.968;2023-08-12T04:20:59;19.77;;;17.05;;
46439;SDS011;32138;50.966;6.968;2023-08-12T04:22:30;18.80;;;16.08;;
46439;SDS011;32138;50.966;6.968;2023-08-12T04:24:01;19.55;;;15.27;;
46439;SDS011;32138;50.966;6.968;2023-08-12T04:25:32;17.27;;;14.57;;
46439;SDS011;32138;50.966;6.968;2023-08-12T04:27:03;19.67;;;14.23;;
46439;SDS011;32138;50.966;6.968;2023-08-12T04:28:34;17.27;;;12.90;;
46439;SDS011;32138;50.966;6.968;2023-08-12T04:30:05;15.88;;;12.82;;
46439;SDS011;32138;50.966;6.968;2023-08-12T04:31:37;16.20;;;12.52;;
46439;SDS011;32138;50.966;6.968;2023-08-12T04:33:08;13.45;;;12.05;;
46439;SDS011;32138;50.966;6.968;2023-08-12T04:34:39;15.27;;;11.55;;
46439;SDS011;32138;50.966;6.968;2023-08-12T04:36:09;13.65;;;11.77;;
46439;SDS011;32138;50.966;6.968;2023-08-12T04:37:40;14.02;;;10.40;;
46439;SDS011;32138;50.966;6.968;2023-08-12T04:39:11;17.63;;;10.52;;
46439;SDS011;32138;50.966;6.968;2023-08-12T04:40:42;10.07;;;9.05;;
46439;SDS011;32138;50.966;6.968;2023-08-12T04:42:12;10.60;;;9.50;;
46439;SDS011;32138;50.966;6.968;2023-08-12T04:43:43;13.38;;;9.57;;
46439;SDS011;32138;50.966;6.968;2023-08-12T04:45:14;12.65;;;9.25;;
46439;SDS011;32138;50.966;6.968;2023-08-12T04:46:45;12.45;;;9.95;;
46439;SDS011;32138;50.966;6.968;2023-08-12T04:48:17;14.60;;;10.18;;
46439;SDS011;32138;50.966;6.968;2023-08-12T04:49:47;13.57;;;9.52;;
46439;SDS011;32138;50.966;6.968;2023-08-12T04:51:18;11.35;;;9.70;;
46439;SDS011;32138;50.966;6.968;2023-08-12T04:52:49;11.75;;;10.38;;
46439;SDS011;32138;50.966;6.968;2023-08-12T04:54:20;9.20;;;8.07;;
46439;SDS011;32138;50.966;6.968;2023-08-12T04:55:50;10.60;;;9.48;;
46439;SDS011;32138;50.966;6.968;2023-08-12T04:57:21;10.13;;;8.90;;
46439;SDS011;32138;50.966;6.968;2023-08-12T04:58:52;11.27;;;8.40;;
46439;SDS011;32138;50.966;6.968;2023-08-12T05:00:23;14.00;;;11.25;;
46439;SDS011;32138;50.966;6.968;2023-08-12T05:01:53;11.55;;;8.82;;
46439;SDS011;32138;50.966;6.968;2023-08-12T05:03:24;11.70;;;9.10;;
46439;SDS011;32138;50.966;6.968;2023-08-12T05:04:55;14.93;;;9.20;;
46439;SDS011;32138;50.966;6.968;2023-08-12T05:06:26;15.85;;;9.73;;
46439;SDS011;32138;50.966;6.968;2023-08-12T05:07:56;11.60;;;9.90;;
46439;SDS011;32138;50.966;6.968;2023-08-12T05:09:27;12.60;;;9.88;;
46439;SDS011;32138;50.966;6.968;2023-08-12T05:10:58;11.20;;;8.85;;
46439;SDS011;32138;50.966;6.968;2023-08-12T05:12:29;11.98;;;9.52;;
46439;SDS011;32138;50.966;6.968;2023-08-12T05:13:59;9.98;;;8.85;;
46439;SDS011;32138;50.966;6.968;2023-08-12T05:15:30;9.88;;;8.07;;
46439;SDS011;32138;50.966;6.968;2023-08-12T05:17:01;13.55;;;9.98;;
46439;SDS011;32138;50.966;6.968;2023-08-12T05:18:32;10.00;;;8.65;;
46439;SDS011;32138;50.966;6.968;2023-08-12T05:20:03;9.70;;;8.43;;
46439;SDS011;32138;50.966;6.968;2023-08-12T05:21:34;11.88;;;9.45;;
46439;SDS011;32138;50.966;6.968;2023-08-12T05:23:05;11.52;;;9.60;;
46439;SDS011;32138;50.966;6.968;2023-08-12T05:24:36;11.30;;;8.23;;
46439;SDS011;32138;50.966;6.968;2023-08-12T05:26:07;9.07;;;8.07;;
46439;SDS011;32138;50.966;6.968;2023-08-12T05:27:37;11.40;;;8.70;;
46439;SDS011;32138;50.966;6.968;2023-08-12T05:29:08;10.68;;;8.65;;
46439;SDS011;32138;50.966;6.968;2023-08-12T05:30:39;11.30;;;8.35;;
46439;SDS011;32138;50.966;6.968;2023-08-12T05:32:10;12.13;;;9.25;;
46439;SDS011;32138;50.966;6.968;2023-08-12T05:33:41;14.25;;;10.85;;
46439;SDS011;32138;50.966;6.968;2023-08-12T05:35:12;9.85;;;8.40;;
46439;SDS011;32138;50.966;6.968;2023-08-12T05:36:42;9.25;;;7.75;;
46439;SDS011;32138;50.966;6.968;2023-08-12T05:38:13;9.63;;;7.55;;
46439;SDS011;32138;50.966;6.968;2023-08-12T05:39:44;7.88;;;7.00;;
46439;SDS011;32138;50.966;6.968;2023-08-12T05:41:14;10.77;;;8.57;;
46439;SDS011;32138;50.966;6.968;2023-08-12T05:42:45;11.25;;;8.70;;
46439;SDS011;32138;50.966;6.968;2023-08-12T05:44:16;9.90;;;8.07;;
46439;SDS011;32138;50.966;6.968;2023-08-12T05:45:47;11.80;;;8.25;;
46439;SDS011;32138;50.966;6.968;2023-08-12T05:47:19;12.43;;;7.90;;
46439;SDS011;32138;50.966;6.968;2023-08-12T05:48:49;9.50;;;8.27;;
46439;SDS011;32138;50.966;6.968;2023-08-12T05:50:20;7.93;;;7.10;;
46439;SDS011;32138;50.966;6.968;2023-08-12T05:51:51;10.30;;;8.52;;
46439;SDS011;32138;50.966;6.968;2023-08-12T05:53:22;13.05;;;8.15;;
46439;SDS011;32138;50.966;6.968;2023-08-12T05:54:53;8.93;;;8.02;;
46439;SDS011;32138;50.966;6.968;2023-08-12T05:56:26;10.05;;;8.38;;
46439;SDS011;32138;50.966;6.968;2023-08-12T05:57:56;9.10;;;8.05;;
46439;SDS011;32138;50.966;6.968;2023-08-12T05:59:27;12.27;;;9.18;;
46439;SDS011;32138;50.966;6.968;2023-08-12T06:00:58;11.50;;;8.52;;
46439;SDS011;32138;50.966;6.968;2023-08-12T06:02:29;8.75;;;7.95;;
46439;SDS011;32138;50.966;6.968;2023-08-12T06:03:59;9.52;;;8.52;;
46439;SDS011;32138;50.966;6.968;2023-08-12T06:05:30;10.38;;;7.88;;
46439;SDS011;32138;50.966;6.968;2023-08-12T06:07:01;10.63;;;9.23;;
46439;SDS011;32138;50.966;6.968;2023-08-12T06:08:32;14.88;;;10.02;;
46439;SDS011;32138;50.966;6.968;2023-08-12T06:10:03;9.43;;;8.00;;
46439;SDS011;32138;50.966;6.968;2023-08-12T06:11:35;12.27;;;10.10;;
46439;SDS011;32138;50.966;6.968;2023-08-12T06:13:06;13.02;;;10.43;;
46439;SDS011;32138;50.966;6.968;2023-08-12T06:14:37;14.32;;;10.02;;
46439;SDS011;32138;50.966;6.968;2023-08-12T06:16:08;12.73;;;10.45;;
46439;SDS011;32138;50.966;6.968;2023-08-12T06:17:39;12.10;;;10.73;;
46439;SDS011;32138;50.966;6.968;2023-08-12T06:19:10;12.52;;;11.23;;
46439;SDS011;32138;50.966;6.968;2023-08-12T06:20:41;12.32;;;10.75;;
46439;SDS011;32138;50.966;6.968;2023-08-12T06:22:12;11.60;;;10.40;;
46439;SDS011;32138;50.966;6.968;2023-08-12T06:23:45;12.95;;;11.07;;
46439;SDS011;32138;50.966;6.968;2023-08-12T06:25:16;14.73;;;11.45;;
46439;SDS011;32138;50.966;6.968;2023-08-12T06:26:47;12.70;;;11.40;;
46439;SDS011;32138;50.966;6.968;2023-08-12T06:28:18;11.90;;;10.05;;
46439;SDS011;32138;50.966;6.968;2023-08-12T06:29:49;14.25;;;10.85;;
46439;SDS011;32138;50.966;6.968;2023-08-12T06:31:19;11.80;;;10.60;;
46439;SDS011;32138;50.966;6.968;2023-08-12T06:32:50;12.98;;;9.68;;
46439;SDS011;32138;50.966;6.968;2023-08-12T06:34:21;14.30;;;10.30;;
46439;SDS011;32138;50.966;6.968;2023-08-12T06:35:52;12.38;;;10.15;;
46439;SDS011;32138;50.966;6.968;2023-08-12T06:37:22;11.80;;;9.68;;
46439;SDS011;32138;50.966;6.968;2023-08-12T06:38:53;13.40;;;9.02;;
46439;SDS011;32138;50.966;6.968;2023-08-12T06:40:24;10.77;;;8.48;;
46439;SDS011;32138;50.966;6.968;2023-08-12T06:41:55;10.60;;;8.85;;
46439;SDS011;32138;50.966;6.968;2023-08-12T06:43:25;8.57;;;7.68;;
46439;SDS011;32138;50.966;6.968;2023-08-12T06:44:59;10.85;;;7.78;;
46439;SDS011;32138;50.966;6.968;2023-08-12T06:46:30;9.90;;;7.57;;
46439;SDS011;32138;50.966;6.968;2023-08-12T06:48:01;10.15;;;7.22;;
46439;SDS011;32138;50.966;6.968;2023-08-12T06:49:32;8.38;;;6.22;;
46439;SDS011;32138;50.966;6.968;2023-08-12T06:51:02;7.45;;;5.47;;
46439;SDS011;32138;50.966;6.968;2023-08-12T06:52:40;7.10;;;5.10;;
46439;SDS011;32138;50.966;6.968;2023-08-12T06:54:11;7.13;;;6.13;;
46439;SDS011;32138;50.966;6.968;2023-08-12T06:55:45;8.55;;;5.68;;
46439;SDS011;32138;50.966;6.968;2023-08-12T06:57:15;7.03;;;4.97;;
46439;SDS011;32138;50.966;6.968;2023-08-12T06:58:46;8.13;;;5.30;;
46439;SDS011;32138;50.966;6.968;2023-08-12T07:00:17;6.75;;;5.10;;
46439;SDS011;32138;50.966;6.968;2023-08-12T07:01:48;6.40;;;4.82;;
46439;SDS011;32138;50.966;6.968;2023-08-12T07:03:19;5.68;;;4.70;;
46439;SDS011;32138;50.966;6.968;2023-08-12T07:04:50;7.03;;;4.43;;
46439;SDS011;32138;50.966;6.968;2023-08-12T07:06:21;6.90;;;4.78;;
46439;SDS011;32138;50.966;6.968;2023-08-12T07:07:52;6.63;;;5.05;;
46439;SDS011;32138;50.966;6.968;2023-08-12T07:09:23;8.80;;;5.28;;
46439;SDS011;32138;50.966;6.968;2023-08-12T07:10:54;6.10;;;4.90;;
46439;SDS011;32138;50.966;6.968;2023-08-12T07:12:24;8.25;;;5.40;;
46439;SDS011;32138;50.966;6.968;2023-08-12T07:13:55;6.13;;;5.03;;
46439;SDS011;32138;50.966;6.968;2023-08-12T07:15:26;6.97;;;5.10;;
46439;SDS011;32138;50.966;6.968;2023-08-12T07:16:57;7.43;;;4.57;;
46439;SDS011;32138;50.966;6.968;2023-08-12T07:18:27;7.20;;;5.30;;
46439;SDS011;32138;50.966;6.968;2023-08-12T07:19:59;7.63;;;5.10;;
46439;SDS011;32138;50.966;6.968;2023-08-12T07:21:29;9.60;;;5.55;;
46439;SDS011;32138;50.966;6.968;2023-08-12T07:23:00;6.53;;;5.32;;
46439;SDS011;32138;50.966;6.968;2023-08-12T07:24:31;11.48;;;5.57;;
46439;SDS011;32138;50.966;6.968;2023-08-12T07:26:02;6.85;;;4.97;;
46439;SDS011;32138;50.966;6.968;2023-08-12T07:27:33;11.18;;;5.70;;
46439;SDS011;32138;50.966;6.968;2023-08-12T07:29:03;8.88;;;5.10;;
46439;SDS011;32138;50.966;6.968;2023-08-12T07:30:35;8.93;;;5.35;;
46439;SDS011;32138;50.966;6.968;2023-08-12T07:32:06;7.68;;;5.30;;
46439;SDS011;32138;50.966;6.968;2023-08-12T07:33:36;9.30;;;5.55;;
46439;SDS011;32138;50.966;6.968;2023-08-12T07:35:07;6.22;;;4.53;;
46439;SDS011;32138;50.966;6.968;2023-08-12T07:36:39;8.38;;;4.93;;
46439;SDS011;32138;50.966;6.968;2023-08-12T07:38:10;9.35;;;5.93;;
46439;SDS011;32138;50.966;6.968;2023-08-12T07:39:41;7.78;;;4.88;;
46439;SDS011;32138;50.966;6.968;2023-08-12T07:41:12;6.18;;;3.97;;
46439;SDS011;32138;50.966;6.968;2023-08-12T07:42:42;6.47;;;4.97;;
46439;SDS011;32138;50.966;6.968;2023-08-12T07:44:13;6.72;;;4.40;;
46439;SDS011;32138;50.966;6.968;2023-08-12T07:45:44;5.88;;;4.50;;
46439;SDS011;32138;50.966;6.968;2023-08-12T07:47:14;7.32;;;5.05;;
46439;SDS011;32138;50.966;6.968;2023-08-12T07:48:45;6.50;;;4.70;;
46439;SDS011;32138;50.966;6.968;2023-08-12T07:50:16;7.72;;;4.28;;
46439;SDS011;32138;50.966;6.968;2023-08-12T07:51:48;5.93;;;4.35;;
46439;SDS011;32138;50.966;6.968;2023-08-12T07:53:19;8.35;;;4.75;;
46439;SDS011;32138;50.966;6.968;2023-08-12T07:54:49;11.32;;;4.50;;
46439;SDS011;32138;50.966;6.968;2023-08-12T07:56:20;6.10;;;4.63;;
46439;SDS011;32138;50.966;6.968;2023-08-12T07:57:53;13.20;;;4.57;;
46439;SDS011;32138;50.966;6.968;2023-08-12T07:59:24;9.40;;;4.78;;
46439;SDS011;32138;50.966;6.968;2023-08-12T08:00:55;5.82;;;4.38;;
46439;SDS011;32138;50.966;6.968;2023-08-12T08:02:26;5.20;;;3.22;;
46439;SDS011;32138;50.966;6.968;2023-08-12T08:03:57;4.70;;;3.42;;
46439;SDS011;32138;50.966;6.968;2023-08-12T08:05:28;6.07;;;3.58;;
46439;SDS011;32138;50.966;6.968;2023-08-12T08:06:58;7.28;;;3.78;;
46439;SDS011;32138;50.966;6.968;2023-08-12T08:08:29;7.00;;;3.92;;
46439;SDS011;32138;50.966;6.968;2023-08-12T08:10:00;7.47;;;4.45;;
46439;SDS011;32138;50.966;6.968;2023-08-12T08:11:31;6.43;;;3.90;;
46439;SDS011;32138;50.966;6.968;2023-08-12T08:13:02;5.70;;;4.05;;
46439;SDS011;32138;50.966;6.968;2023-08-12T08:14:33;5.20;;;3.70;;
46439;SDS011;32138;50.966;6.968;2023-08-12T08:16:03;7.50;;;4.00;;
46439;SDS011;32138;50.966;6.968;2023-08-12T08:17:34;7.00;;;3.78;;
46439;SDS011;32138;50.966;6.968;2023-08-12T08:19:05;7.63;;;3.92;;
46439;SDS011;32138;50.966;6.968;2023-08-12T08:20:35;5.45;;;3.63;;
46439;SDS011;32138;50.966;6.968;2023-08-12T08:22:06;9.52;;;3.85;;
46439;SDS011;32138;50.966;6.968;2023-08-12T08:23:37;5.72;;;5.15;;
46439;SDS011;32138;50.966;6.968;2023-08-12T08:25:10;6.40;;;3.65;;
46439;SDS011;32138;50.966;6.968;2023-08-12T08:26:41;4.93;;;3.90;;
46439;SDS011;32138;50.966;6.968;2023-08-12T08:28:12;5.07;;;3.38;;
46439;SDS011;32138;50.966;6.968;2023-08-12T08:29:43;5.47;;;3.63;;
46439;SDS011;32138;50.966;6.968;2023-08-12T08:31:13;5.15;;;3.05;;
46439;SDS011;32138;50.966;6.968;2023-08-12T08:32:44;5.30;;;3.50;;
46439;SDS011;32138;50.966;6.968;2023-08-12T08:34:16;6.28;;;3.45;;
46439;SDS011;32138;50.966;6.968;2023-08-12T08:35:50;4.88;;;3.25;;
46439;SDS011;32138;50.966;6.968;2023-08-12T08:37:20;6.32;;;4.03;;
46439;SDS011;32138;50.966;6.968;2023-08-12T08:38:51;5.25;;;3.30;;
46439;SDS011;32138;50.966;6.968;2023-08-12T08:40:22;5.38;;;3.08;;
46439;SDS011;32138;50.966;6.968;2023-08-12T08:41:53;7.53;;;3.95;;
46439;SDS011;32138;50.966;6.968;2023-08-12T08:43:25;6.63;;;3.55;;
46439;SDS011;32138;50.966;6.968;2023-08-12T08:44:58;3.65;;;2.63;;
46439;SDS011;32138;50.966;6.968;2023-08-12T08:46:32;4.63;;;3.03;;
46439;SDS011;32138;50.966;6.968;2023-08-12T08:48:02;5.60;;;3.30;;
46439;SDS011;32138;50.966;6.968;2023-08-12T08:49:35;7.10;;;3.25;;
46439;SDS011;32138;50.966;6.968;2023-08-12T08:51:07;8.10;;;4.05;;
46439;SDS011;32138;50.966;6.968;2023-08-12T08:52:40;4.45;;;3.17;;
46439;SDS011;32138;50.966;6.968;2023-08-12T08:54:13;5.00;;;3.33;;
46439;SDS011;32138;50.966;6.968;2023-08-12T08:55:45;4.22;;;3.38;;
46439;SDS011;32138;50.966;6.968;2023-08-12T08:57:16;6.00;;;3.13;;
46439;SDS011;32138;50.966;6.968;2023-08-12T08:58:49;5.53;;;3.00;;
46439;SDS011;32138;50.966;6.968;2023-08-12T09:00:20;7.00;;;3.10;;
46439;SDS011;32138;50.966;6.968;2023-08-12T09:01:51;8.38;;;3.60;;
46439;SDS011;32138;50.966;6.968;2023-08-12T09:03:23;6.15;;;3.30;;